createdAt,value
2022-09-05T00:00:05.648Z,1.95
2022-09-05T00:03:03.949Z,2.30
2022-09-05T00:06:00.124Z,2.30
2022-09-05T00:08:43.655Z,2.00
2022-09-05T00:11:42.917Z,1.65
2022-09-05T00:15:15.280Z,2.00
2022-09-05T00:18:45.453Z,1.90
2022-09-05T00:24:25.190Z,1.75
2022-09-05T00:24:33.929Z,1.83
2022-09-05T00:26:36.601Z,1.80
2022-09-05T00:29:20.378Z,1.83
2022-09-05T00:32:15.762Z,1.35
2022-09-05T00:35:19.198Z,1.60
2022-09-05T00:37:50.841Z,1.70
2022-09-05T00:40:28.249Z,1.55
2022-09-05T00:43:03.404Z,1.50
2022-09-05T00:45:38.420Z,1.50
2022-09-05T00:48:21.460Z,1.65
2022-09-05T00:51:03.569Z,1.38
2022-09-05T00:56:25.090Z,1.48
2022-09-05T00:59:24.230Z,1.35
2022-09-05T01:02:00.632Z,1.60
2022-09-05T01:04:40.788Z,1.08
2022-09-05T01:07:24.952Z,1.50
2022-09-05T01:10:05.702Z,1.42
2022-09-05T01:12:53.024Z,1.30
2022-09-05T01:15:33.819Z,1.40
2022-09-05T01:18:23.693Z,1.52
2022-09-05T01:21:19.313Z,1.58
2022-09-05T01:23:56.603Z,1.08
2022-09-05T01:26:53.816Z,1.33
2022-09-05T01:29:31.531Z,1.70
2022-09-05T01:32:22.978Z,1.45
2022-09-05T01:35:28.216Z,1.40
2022-09-05T01:38:01.378Z,1.67
2022-09-05T01:40:37.841Z,1.15
2022-09-05T01:43:21.005Z,1.40
2022-09-05T01:45:52.829Z,1.35
2022-09-05T01:48:33.948Z,1.75
2022-09-05T01:51:28.231Z,1.25
2022-09-05T01:54:24.143Z,1.35
2022-09-05T01:57:07.683Z,1.38
2022-09-05T01:59:48.284Z,1.20
2022-09-05T02:02:37.932Z,1.20
2022-09-05T02:05:20.688Z,1.10
2022-09-05T02:08:23.600Z,1.00
2022-09-05T02:11:04.383Z,1.23
2022-09-05T02:13:49.536Z,1.17
2022-09-05T02:16:24.752Z,1.00
2022-09-05T02:19:01.600Z,1.20
2022-09-05T02:21:55.689Z,1.15
2022-09-05T02:24:29.533Z,1.00
2022-09-05T02:27:38.899Z,1.10
2022-09-05T02:30:10.392Z,1.10
2022-09-05T02:32:55.842Z,1.25
2022-09-05T02:35:33.267Z,1.15
2022-09-05T02:39:11.504Z,0.82
2022-09-05T02:45:09.200Z,1.02
2022-09-05T02:45:11.606Z,0.98
2022-09-05T02:46:55.912Z,1.02
2022-09-05T02:51:58.484Z,0.95
2022-09-05T02:57:39.469Z,1.40
2022-09-05T02:57:46.575Z,1.05
2022-09-05T02:58:53.376Z,1.48
2022-09-05T03:01:34.594Z,1.15
2022-09-05T03:04:18.131Z,1.05
2022-09-05T03:07:00.237Z,1.40
2022-09-05T03:12:50.645Z,1.35
2022-09-05T03:16:01.318Z,1.40
2022-09-05T03:19:07.545Z,1.30
2022-09-05T03:22:10.071Z,1.55
2022-09-05T03:25:01.757Z,1.70
2022-09-05T03:28:04.335Z,1.48
2022-09-05T03:30:51.725Z,1.40
2022-09-05T03:34:17.374Z,2.28
2022-09-05T03:37:05.621Z,1.40
2022-09-05T03:40:15.989Z,1.10
2022-09-05T03:43:20.757Z,1.20
2022-09-05T03:46:04.213Z,1.48
2022-09-05T03:50:16.696Z,1.20
2022-09-05T03:57:05.934Z,1.25
2022-09-05T03:57:27.637Z,1.05
2022-09-05T03:58:59.829Z,1.30
2022-09-05T04:03:21.594Z,1.30
2022-09-05T04:08:08.103Z,1.20
2022-09-05T04:08:26.331Z,1.10
2022-09-05T04:10:34.713Z,1.25
2022-09-05T04:13:09.849Z,1.20
2022-09-05T04:15:44.723Z,1.40
2022-09-05T04:18:28.048Z,0.98
2022-09-05T04:21:08.570Z,1.73
2022-09-05T04:23:49.509Z,1.95
2022-09-05T04:26:31.619Z,1.27
2022-09-05T04:29:09.826Z,1.10
2022-09-05T04:31:50.048Z,1.00
2022-09-05T04:35:00.635Z,1.48
2022-09-05T04:37:48.957Z,1.25
2022-09-05T04:40:39.646Z,1.48
2022-09-05T04:43:15.008Z,1.40
2022-09-05T04:45:48.429Z,1.50
2022-09-05T04:48:23.052Z,1.67
2022-09-05T04:51:12.837Z,1.27
2022-09-05T04:54:13.656Z,1.40
2022-09-05T04:56:47.882Z,1.63
2022-09-05T05:01:54.458Z,1.30
2022-09-05T05:06:08.915Z,1.63
2022-09-05T05:06:11.903Z,1.45
2022-09-05T05:08:28.769Z,1.65
2022-09-05T05:17:22.320Z,3.28
2022-09-05T05:18:07.633Z,5.18
2022-09-05T05:18:08.807Z,5.38
2022-09-05T05:20:42.798Z,15.50
2022-09-05T05:22:58.545Z,13.00
2022-09-05T05:25:44.801Z,7.93
2022-09-05T05:28:24.020Z,5.13
2022-09-05T05:31:01.252Z,3.38
2022-09-05T05:33:36.555Z,2.88
2022-09-05T05:36:09.906Z,2.40
2022-09-05T05:38:50.792Z,2.42
2022-09-05T05:41:26.017Z,2.50
2022-09-05T05:43:55.687Z,2.00
2022-09-05T05:46:32.712Z,2.03
2022-09-05T05:49:28.805Z,1.90
2022-09-05T05:52:18.022Z,2.22
2022-09-05T05:55:09.680Z,1.55
2022-09-05T05:58:11.291Z,1.30
2022-09-05T06:01:09.400Z,1.73
2022-09-05T06:04:44.952Z,1.75
2022-09-05T06:07:25.673Z,1.20
2022-09-05T06:14:48.575Z,1.15
2022-09-05T06:14:55.119Z,1.08
2022-09-05T06:17:02.990Z,0.77
2022-09-05T06:22:07.083Z,0.82
2022-09-05T06:24:00.658Z,0.90
2022-09-05T06:26:57.480Z,0.80
2022-09-05T06:29:51.842Z,0.77
2022-09-05T06:32:35.499Z,0.50
2022-09-05T06:35:23.577Z,0.80
2022-09-05T06:38:06.495Z,0.63
2022-09-05T06:40:48.219Z,0.60
2022-09-05T06:43:32.578Z,0.68
2022-09-05T06:46:54.503Z,1.00
2022-09-05T06:49:28.889Z,0.73
2022-09-05T06:52:46.805Z,0.68
2022-09-05T06:55:47.518Z,0.95
2022-09-05T06:58:57.329Z,0.63
2022-09-05T07:01:59.873Z,0.80
2022-09-05T07:05:23.347Z,0.50
2022-09-05T07:07:27.982Z,0.57
2022-09-05T07:10:16.656Z,0.40
2022-09-05T07:12:58.092Z,0.60
2022-09-05T07:15:38.438Z,0.45
2022-09-05T07:18:15.414Z,0.68
2022-09-05T07:21:17.308Z,0.50
2022-09-05T07:24:06.541Z,0.55
2022-09-05T07:26:52.092Z,0.70
2022-09-05T07:29:31.290Z,0.40
2022-09-05T07:32:03.237Z,0.50
2022-09-05T07:34:36.401Z,0.75
2022-09-05T07:37:15.422Z,0.60
2022-09-05T07:39:52.288Z,0.50
2022-09-05T07:42:27.224Z,0.50
2022-09-05T07:45:02.227Z,0.40
2022-09-05T07:47:34.650Z,0.60
2022-09-05T07:52:32.536Z,0.47
2022-09-05T07:56:50.754Z,0.50
2022-09-05T07:57:01.853Z,0.40
2022-09-05T07:58:50.646Z,0.47
2022-09-05T08:01:22.927Z,0.70
2022-09-05T08:03:57.378Z,1.52
2022-09-05T08:07:25.688Z,0.98
2022-09-05T08:10:08.868Z,0.35
2022-09-05T08:12:27.646Z,0.70
2022-09-05T08:15:10.312Z,0.40
2022-09-05T08:17:56.785Z,0.85
2022-09-05T08:20:37.076Z,0.52
2022-09-05T08:23:12.579Z,0.40
2022-09-05T08:25:57.259Z,0.30
2022-09-05T08:28:37.611Z,0.50
2022-09-05T08:31:14.550Z,0.50
2022-09-05T08:33:46.426Z,0.43
2022-09-05T08:36:27.579Z,0.60
2022-09-05T08:38:59.876Z,0.50
2022-09-05T08:41:51.310Z,0.50
2022-09-05T08:46:39.569Z,0.40
2022-09-05T08:47:32.451Z,0.20
2022-09-05T08:50:34.285Z,0.60
2022-09-05T08:53:26.169Z,0.45
2022-09-05T08:56:10.381Z,0.40
2022-09-05T08:59:27.651Z,0.45
2022-09-05T09:02:45.502Z,0.40
2022-09-05T09:05:01.359Z,0.30
2022-09-05T09:07:50.771Z,0.40
2022-09-05T09:10:32.813Z,0.40
2022-09-05T09:13:25.413Z,0.30
2022-09-05T09:16:06.676Z,0.30
2022-09-05T09:18:46.481Z,0.13
2022-09-05T09:21:26.604Z,0.40
2022-09-05T09:24:08.182Z,0.35
2022-09-05T09:26:43.651Z,0.40
2022-09-05T09:29:15.494Z,0.22
2022-09-05T09:32:09.863Z,0.40
2022-09-05T09:34:55.601Z,0.13
2022-09-05T09:38:13.825Z,0.28
2022-09-05T09:41:06.647Z,0.20
2022-09-05T09:43:57.686Z,0.40
2022-09-05T09:46:39.254Z,0.60
2022-09-05T09:49:25.162Z,0.32
2022-09-05T09:52:24.753Z,0.45
2022-09-05T09:55:41.087Z,0.20
2022-09-05T09:58:41.370Z,0.28
2022-09-05T10:01:36.401Z,0.52
2022-09-05T10:10:36.257Z,0.30
2022-09-05T10:10:44.354Z,0.38
2022-09-05T10:11:37.541Z,0.35
2022-09-05T10:14:40.134Z,0.40
2022-09-05T10:17:29.675Z,0.20
2022-09-05T10:20:40.567Z,0.20
2022-09-05T10:23:34.740Z,0.30
2022-09-05T10:26:31.663Z,0.40
2022-09-05T10:29:34.052Z,0.50
2022-09-05T10:34:53.482Z,0.28
2022-09-05T10:35:08.676Z,0.30
2022-09-05T10:37:44.431Z,0.30
2022-09-05T10:40:15.886Z,0.38
2022-09-05T10:42:58.091Z,0.40
2022-09-05T10:45:41.587Z,0.35
2022-09-05T10:48:19.090Z,0.40
2022-09-05T10:50:54.815Z,0.30
2022-09-05T10:53:39.102Z,0.38
2022-09-05T10:56:15.145Z,0.30
2022-09-05T11:01:33.441Z,0.28
2022-09-05T11:02:26.500Z,0.50
2022-09-05T11:05:05.751Z,0.20
2022-09-05T11:07:41.891Z,0.30
2022-09-05T11:10:17.587Z,0.20
2022-09-05T11:13:20.154Z,0.30
2022-09-05T11:16:10.293Z,0.30
2022-09-05T11:18:57.329Z,0.30
2022-09-05T11:22:19.881Z,0.32
2022-09-05T11:24:52.701Z,0.30
2022-09-05T11:27:31.186Z,0.60
2022-09-05T11:30:05.683Z,0.45
2022-09-05T11:39:52.577Z,0.10
2022-09-05T11:39:55.184Z,0.20
2022-09-05T11:42:33.359Z,0.20
2022-09-05T11:45:22.440Z,0.63
2022-09-05T11:48:16.156Z,0.28
2022-09-05T11:51:26.092Z,0.63
2022-09-05T11:54:24.986Z,0.20
2022-09-05T11:57:33.490Z,0.10
2022-09-05T12:00:31.990Z,0.20
2022-09-05T12:03:59.824Z,0.20
2022-09-05T12:06:57.580Z,0.40
2022-09-05T12:09:47.704Z,0.25
2022-09-05T12:12:41.782Z,0.28
2022-09-05T12:15:26.934Z,0.40
2022-09-05T12:18:19.317Z,0.38
2022-09-05T12:20:58.305Z,0.30
2022-09-05T12:24:13.198Z,0.20
2022-09-05T12:27:40.469Z,0.30
2022-09-05T12:29:36.614Z,0.20
2022-09-05T12:33:45.492Z,0.32
2022-09-05T12:36:04.872Z,0.40
2022-09-05T12:40:28.626Z,0.90
2022-09-05T12:41:42.814Z,0.28
2022-09-05T12:44:41.973Z,0.40
2022-09-05T12:47:19.819Z,0.45
2022-09-05T12:50:14.556Z,0.82
2022-09-05T12:52:47.678Z,0.43
2022-09-05T12:55:26.521Z,0.40
2022-09-05T13:02:34.728Z,0.30
2022-09-05T13:03:09.657Z,0.80
2022-09-05T13:04:30.989Z,0.60
2022-09-05T13:07:05.800Z,0.30
2022-09-05T13:12:07.434Z,0.28
2022-09-05T13:14:48.704Z,0.30
2022-09-05T13:15:28.452Z,0.50
2022-09-05T13:18:15.390Z,0.60
2022-09-05T13:20:51.751Z,2.03
2022-09-05T13:23:24.967Z,1.00
2022-09-05T13:25:59.057Z,0.40
2022-09-05T13:28:44.901Z,0.30
2022-09-05T13:35:35.125Z,0.28
2022-09-05T13:38:05.482Z,0.35
2022-09-05T13:38:30.414Z,0.22
2022-09-05T13:39:57.629Z,0.40
2022-09-05T13:42:30.453Z,0.20
2022-09-05T13:45:00.925Z,0.22
2022-09-05T13:48:15.484Z,0.30
2022-09-05T13:50:55.077Z,0.22
2022-09-05T13:53:35.697Z,0.30
2022-09-05T13:56:23.233Z,0.28
2022-09-05T13:58:57.220Z,4.78
2022-09-05T14:01:54.601Z,0.85
2022-09-05T14:05:19.398Z,0.45
2022-09-05T14:08:19.431Z,0.60
2022-09-05T14:11:07.502Z,0.20
2022-09-05T14:13:59.696Z,0.30
2022-09-05T14:16:42.016Z,0.30
2022-09-05T14:19:43.471Z,0.40
2022-09-05T14:22:32.769Z,0.10
2022-09-05T14:25:03.607Z,0.20
2022-09-05T14:27:35.617Z,0.60
2022-09-05T14:32:14.457Z,0.32
2022-09-05T14:37:44.561Z,0.20
2022-09-05T14:37:52.712Z,0.33
2022-09-05T14:39:23.117Z,0.20
2022-09-05T14:42:34.327Z,0.20
2022-09-05T14:45:31.175Z,0.28
2022-09-05T14:48:36.002Z,0.43
2022-09-05T14:51:26.026Z,0.60
2022-09-05T14:54:00.344Z,0.30
2022-09-05T14:57:23.918Z,0.28
2022-09-05T15:02:49.443Z,0.20
2022-09-05T15:02:54.498Z,0.30
2022-09-05T15:05:21.601Z,0.22
2022-09-05T15:07:58.646Z,0.40
2022-09-05T15:12:18.561Z,0.50
2022-09-05T15:13:25.818Z,0.40
2022-09-05T15:16:02.789Z,0.28
2022-09-05T15:18:39.363Z,0.30
2022-09-05T15:21:30.660Z,1.00
2022-09-05T15:24:14.912Z,0.40
2022-09-05T15:26:53.099Z,0.38
2022-09-05T15:29:24.871Z,0.40
2022-09-05T15:31:59.463Z,0.55
2022-09-05T15:34:40.947Z,0.52
2022-09-05T15:37:24.654Z,0.33
2022-09-05T15:40:02.944Z,1.63
2022-09-05T15:42:34.583Z,0.93
2022-09-05T15:45:10.193Z,0.28
2022-09-05T15:47:45.327Z,0.60
2022-09-05T15:50:26.509Z,0.40
2022-09-05T15:52:57.008Z,0.50
2022-09-05T15:55:28.488Z,0.38
2022-09-05T15:58:00.267Z,0.40
2022-09-05T16:07:45.950Z,0.50
2022-09-05T16:10:35.322Z,0.30
2022-09-05T16:10:48.475Z,0.47
2022-09-05T16:12:17.074Z,0.32
2022-09-05T16:15:19.838Z,0.35
2022-09-05T16:23:17.150Z,0.38
2022-09-05T16:23:31.628Z,0.60
2022-09-05T16:23:40.515Z,0.80
2022-09-05T16:26:25.857Z,0.32
2022-09-05T16:28:59.795Z,0.30
2022-09-05T16:31:38.860Z,0.40
2022-09-05T16:34:13.431Z,0.40
2022-09-05T16:37:07.870Z,0.32
2022-09-05T16:39:42.846Z,0.40
2022-09-05T16:42:18.621Z,0.30
2022-09-05T16:44:54.714Z,0.40
2022-09-05T16:47:29.910Z,0.55
2022-09-05T16:50:06.525Z,1.15
2022-09-05T16:53:28.222Z,2.97
2022-09-05T16:56:05.791Z,1.30
2022-09-05T16:58:40.210Z,1.15
2022-09-05T17:01:27.226Z,1.10
2022-09-05T17:03:58.636Z,0.88
2022-09-05T17:09:13.473Z,4.60
2022-09-05T17:12:00.855Z,1.67
2022-09-05T17:14:35.633Z,0.90
2022-09-05T17:17:19.578Z,1.20
2022-09-05T17:20:07.107Z,4.82
2022-09-05T17:24:18.187Z,1.58
2022-09-05T17:29:27.608Z,0.82
2022-09-05T17:30:26.367Z,1.30
2022-09-05T17:32:19.054Z,0.70
2022-09-05T17:34:58.743Z,0.95
2022-09-05T17:38:11.323Z,1.33
2022-09-05T17:41:16.947Z,1.92
2022-09-05T17:43:51.722Z,1.13
2022-09-05T17:46:25.281Z,1.33
2022-09-05T17:49:18.255Z,1.58
2022-09-05T17:52:18.389Z,1.30
2022-09-05T17:54:49.500Z,1.10
2022-09-05T17:57:41.578Z,2.38
2022-09-05T18:00:43.848Z,2.43
2022-09-05T18:03:13.331Z,2.33
2022-09-05T18:06:04.916Z,1.98
2022-09-05T18:08:53.187Z,1.13
2022-09-05T18:11:37.726Z,0.98
2022-09-05T18:17:52.513Z,1.25
2022-09-05T18:20:29.928Z,1.88
2022-09-05T18:23:18.165Z,1.35
2022-09-05T18:26:03.563Z,1.00
2022-09-05T18:28:40.820Z,1.02
2022-09-05T18:31:47.034Z,1.40
2022-09-05T18:35:11.620Z,1.50
2022-09-05T18:38:26.132Z,2.47
2022-09-05T18:41:23.474Z,1.33
2022-09-05T18:44:13.579Z,1.17
2022-09-05T18:46:51.176Z,1.20
2022-09-05T18:50:22.429Z,1.02
2022-09-05T18:52:23.448Z,1.30
2022-09-05T18:55:46.357Z,1.00
2022-09-05T18:57:57.887Z,1.38
2022-09-05T19:00:46.985Z,1.13
2022-09-05T19:03:25.052Z,1.52
2022-09-05T19:06:35.995Z,1.75
2022-09-05T19:08:54.442Z,1.58
2022-09-05T19:11:33.467Z,1.60
2022-09-05T19:14:25.961Z,1.55
2022-09-05T19:17:06.718Z,1.70
2022-09-05T19:20:31.050Z,1.50
2022-09-05T19:23:09.776Z,1.27
2022-09-05T19:36:49.471Z,2.00
2022-09-05T19:37:09.247Z,1.30
2022-09-05T19:37:23.916Z,1.50
2022-09-05T19:46:41.623Z,1.80
2022-09-05T19:47:29.845Z,1.45
2022-09-05T19:47:41.874Z,1.75
2022-09-05T19:48:26.615Z,1.73
2022-09-05T19:50:56.609Z,1.52
2022-09-05T19:53:26.160Z,1.58
2022-09-05T19:55:55.137Z,2.15
2022-09-05T19:58:25.169Z,2.10
2022-09-05T20:01:03.510Z,2.50
2022-09-05T20:03:39.251Z,2.60
2022-09-05T20:06:29.416Z,2.85
2022-09-05T20:09:10.723Z,3.05
2022-09-05T20:11:46.212Z,3.10
2022-09-05T20:14:24.147Z,3.40
2022-09-05T20:16:55.386Z,3.35
2022-09-05T20:19:29.051Z,3.80
2022-09-05T20:22:10.093Z,3.85
2022-09-05T20:24:53.718Z,4.03
2022-09-05T20:27:27.595Z,3.70
2022-09-05T20:29:59.913Z,3.70
2022-09-05T20:32:39.338Z,3.22
2022-09-05T20:37:10.792Z,3.75
2022-09-05T20:43:17.029Z,3.30
2022-09-05T20:43:17.745Z,3.65
2022-09-05T20:43:57.564Z,3.40
2022-09-05T20:52:08.866Z,3.15
2022-09-05T20:54:05.995Z,2.90
2022-09-05T20:54:14.085Z,3.30
2022-09-05T20:55:38.362Z,3.90
2022-09-05T20:58:10.682Z,3.10
2022-09-05T21:00:46.376Z,4.30
2022-09-05T21:03:36.860Z,4.63
2022-09-05T21:06:23.708Z,3.72
2022-09-05T21:09:13.386Z,4.10
2022-09-05T21:11:42.663Z,3.63
2022-09-05T21:14:12.313Z,3.92
2022-09-05T21:16:45.366Z,4.43
2022-09-05T21:19:24.899Z,4.07
2022-09-05T21:22:04.417Z,4.07
2022-09-05T21:24:34.823Z,3.83
2022-09-05T21:27:17.941Z,3.47
2022-09-05T21:29:50.957Z,3.50
2022-09-05T21:32:37.812Z,3.90
2022-09-05T21:35:33.732Z,3.15
2022-09-05T21:38:02.264Z,3.80
2022-09-05T21:40:32.164Z,3.33
2022-09-05T21:47:33.355Z,2.83
2022-09-05T21:47:39.037Z,2.58
2022-09-05T21:48:41.365Z,2.50
2022-09-05T21:51:13.397Z,2.60
2022-09-05T21:59:10.272Z,2.63
2022-09-05T21:59:19.597Z,2.50
2022-09-05T21:59:40.040Z,2.53
2022-09-05T22:02:16.860Z,2.10
2022-09-05T22:04:47.314Z,2.50
2022-09-05T22:07:31.889Z,2.40
2022-09-05T22:10:03.403Z,2.70
2022-09-05T22:12:39.359Z,2.78
2022-09-05T22:15:28.547Z,2.78
2022-09-05T22:18:16.723Z,2.80
2022-09-05T22:21:02.929Z,2.60
2022-09-05T22:23:44.489Z,2.58
2022-09-05T22:26:14.322Z,2.47
2022-09-05T22:28:49.085Z,2.40
2022-09-05T22:31:18.473Z,2.80
2022-09-05T22:33:50.913Z,2.33
2022-09-05T22:36:19.929Z,3.13
2022-09-05T22:38:48.494Z,2.90
2022-09-05T22:41:17.795Z,2.13
2022-09-05T22:44:00.280Z,2.45
2022-09-05T22:46:29.648Z,2.38
2022-09-05T22:48:59.072Z,2.70
2022-09-05T22:51:27.742Z,2.50
2022-09-05T22:53:56.488Z,2.03
2022-09-05T22:56:33.476Z,2.60
2022-09-05T22:59:04.256Z,2.63
2022-09-05T23:01:34.035Z,2.80
2022-09-05T23:04:03.275Z,2.40
2022-09-05T23:06:34.631Z,2.22
2022-09-05T23:09:03.482Z,2.55
2022-09-05T23:11:32.236Z,2.00
2022-09-05T23:14:00.712Z,2.70
2022-09-05T23:16:30.834Z,2.13
2022-09-05T23:18:59.420Z,2.58
2022-09-05T23:21:28.204Z,2.40
2022-09-05T23:23:57.004Z,2.10
2022-09-05T23:26:25.368Z,2.25
2022-09-05T23:28:53.815Z,2.05
2022-09-05T23:31:22.732Z,1.83
2022-09-05T23:33:55.731Z,2.10
2022-09-05T23:36:24.981Z,2.15
2022-09-05T23:38:53.759Z,2.13
2022-09-05T23:41:22.143Z,2.30
2022-09-05T23:43:50.516Z,2.40
2022-09-05T23:46:19.121Z,2.00
2022-09-05T23:48:47.739Z,2.53
2022-09-05T23:51:18.245Z,2.38
2022-09-05T23:53:47.343Z,2.25
2022-09-05T23:56:16.085Z,1.70
2022-09-05T23:58:44.728Z,2.13
